San Francisco, California
Traffic Map
Current Weather Conditions
San Francisco, California
Broken Clouds
Broken Clouds
13°
Feels Like: 13°
Wind Chill: 13° Ceiling: 20000
Heat Index: 13° Visibility: 10mi
Dew Point: Wind: 15mph
Humidity: 67% Direction: 250° (WSW)
Pressure: 29.92in Gusts: 0mph
Raw Report DataKSFO 060256Z 25013KT 10SM FEW019 BKN200 13/07 A2992 RMK AO2 SLP130 T01280067 55003
Traffic Incident Summary
Active as of:
Severity:
Category:
InformationThere was an issue retrieving the traffic information for this location. Please try a different location or try again shortly.
Advertisements
Track Severe Weather on mobile